Terminal Aerodrome Forecast
Issued by NWS

Home | Current Version | Previous Version | Text Only | Print | Product List | Glossary On
Versions: 1 2 3 4 5 6 7 8 9 10 11 12 13 14 15
000
FTUS44 KTSA 251100
TAFXNA
TAF
KXNA 251120Z 2512/2612 19005KT P6SM SCT025 SCT250
      TEMPO 2512/2515 BKN015
     FM251500 19012KT P6SM SCT035
     FM260100 19005KT P6SM FEW250=

USA.gov is the U.S. government's official web portal to all federal, state and local government web resources and services.